createdAt,value
2022-12-04T00:02:12.080Z,12.93
2022-12-04T00:04:38.859Z,11.90
2022-12-04T00:07:05.632Z,12.83
2022-12-04T00:09:32.292Z,12.95
2022-12-04T00:11:58.970Z,11.98
2022-12-04T00:14:25.690Z,13.38
2022-12-04T00:16:52.477Z,13.57
2022-12-04T00:19:19.755Z,12.43
2022-12-04T00:21:46.559Z,12.88
2022-12-04T00:24:13.358Z,12.40
2022-12-04T00:26:40.168Z,13.70
2022-12-04T00:29:06.928Z,13.40
2022-12-04T00:31:33.770Z,12.80
2022-12-04T00:34:02.090Z,13.00
2022-12-04T00:36:29.996Z,12.88
2022-12-04T00:38:58.415Z,13.45
2022-12-04T00:41:30.397Z,13.60
2022-12-04T00:43:57.686Z,14.23
2022-12-04T00:46:24.848Z,13.50
2022-12-04T00:48:52.548Z,14.40
2022-12-04T00:51:23.856Z,13.50
2022-12-04T00:53:51.951Z,12.57
2022-12-04T00:56:24.328Z,11.67
2022-12-04T00:58:56.291Z,14.23
2022-12-04T01:01:24.297Z,13.45
2022-12-04T01:03:52.108Z,14.40
2022-12-04T01:06:27.696Z,13.60
2022-12-04T01:08:56.108Z,13.63
2022-12-04T01:11:24.461Z,13.90
2022-12-04T01:13:51.581Z,14.10
2022-12-04T01:16:21.656Z,14.60
2022-12-04T01:18:49.343Z,13.43
2022-12-04T01:21:16.224Z,14.17
2022-12-04T01:23:44.104Z,14.27
2022-12-04T01:26:11.135Z,13.52
2022-12-04T01:28:38.250Z,14.90
2022-12-04T01:31:08.300Z,14.32
2022-12-04T01:33:37.693Z,13.97
2022-12-04T01:36:06.875Z,14.20
2022-12-04T01:38:35.452Z,14.43
2022-12-04T01:41:02.685Z,13.77
2022-12-04T01:43:31.972Z,13.13
2022-12-04T01:46:00.550Z,14.73
2022-12-04T01:48:33.042Z,14.52
2022-12-04T01:51:17.896Z,13.40
2022-12-04T01:53:49.523Z,14.35
2022-12-04T01:56:18.144Z,14.70
2022-12-04T01:58:49.272Z,14.27
2022-12-04T02:01:16.094Z,14.25
2022-12-04T02:03:43.108Z,14.45
2022-12-04T02:06:10.028Z,13.88
2022-12-04T02:08:37.611Z,14.13
2022-12-04T02:11:39.220Z,15.40
2022-12-04T02:14:26.800Z,14.38
2022-12-04T02:17:14.023Z,14.48
2022-12-04T02:20:11.926Z,13.85
2022-12-04T02:23:00.536Z,14.52
2022-12-04T02:25:56.459Z,13.87
2022-12-04T02:28:25.451Z,13.85
2022-12-04T02:30:58.737Z,13.65
2022-12-04T02:33:39.059Z,14.13
2022-12-04T02:36:20.782Z,14.25
2022-12-04T02:39:09.828Z,13.73
2022-12-04T02:41:43.563Z,13.13
2022-12-04T02:44:27.586Z,12.77
2022-12-04T02:47:02.598Z,13.88
2022-12-04T02:49:33.969Z,12.00
2022-12-04T02:52:02.964Z,13.93
2022-12-04T02:54:38.969Z,15.05
2022-12-04T02:57:10.936Z,15.32
2022-12-04T02:59:46.258Z,14.98
2022-12-04T03:02:22.664Z,13.68
2022-12-04T03:04:51.741Z,13.23
2022-12-04T03:07:25.216Z,14.85
2022-12-04T03:09:57.954Z,15.30
2022-12-04T03:12:39.852Z,14.80
2022-12-04T03:15:18.022Z,14.88
2022-12-04T03:17:57.120Z,14.03
2022-12-04T03:20:25.036Z,15.50
2022-12-04T03:22:59.205Z,13.10
2022-12-04T03:25:33.199Z,15.85
2022-12-04T03:28:08.455Z,14.55
2022-12-04T03:30:49.413Z,14.33
2022-12-04T03:33:21.296Z,14.70
2022-12-04T03:36:00.402Z,15.45
2022-12-04T03:38:33.067Z,14.50
2022-12-04T03:41:18.349Z,15.13
2022-12-04T03:43:53.646Z,15.57
2022-12-04T03:46:32.223Z,12.50
2022-12-04T03:49:17.743Z,15.27
2022-12-04T03:52:28.794Z,15.95
2022-12-04T03:55:04.599Z,14.73
2022-12-04T03:57:36.490Z,14.67
2022-12-04T04:00:22.219Z,15.65
2022-12-04T04:02:59.082Z,14.80
2022-12-04T04:05:29.195Z,15.80
2022-12-04T04:08:21.627Z,15.40
2022-12-04T04:10:50.873Z,15.43
2022-12-04T04:13:41.671Z,14.70
2022-12-04T04:16:30.300Z,15.75
2022-12-04T04:19:18.336Z,15.68
2022-12-04T04:22:05.631Z,15.35
2022-12-04T04:24:53.542Z,14.77
2022-12-04T04:27:20.203Z,14.82
2022-12-04T04:29:52.303Z,14.85
2022-12-04T04:32:45.840Z,16.13
2022-12-04T04:35:21.960Z,15.20
2022-12-04T04:38:07.421Z,15.23
2022-12-04T04:40:37.120Z,15.75
2022-12-04T04:43:19.126Z,14.80
2022-12-04T04:45:50.687Z,16.38
2022-12-04T04:48:29.097Z,16.08
2022-12-04T04:50:56.375Z,15.00
2022-12-04T04:53:29.631Z,15.82
2022-12-04T04:55:57.191Z,14.90
2022-12-04T04:58:23.903Z,16.05
2022-12-04T05:01:21.408Z,16.15
2022-12-04T05:03:48.512Z,15.47
2022-12-04T05:06:15.872Z,14.50
2022-12-04T05:08:42.646Z,14.93
2022-12-04T05:11:13.172Z,16.33
2022-12-04T05:13:40.471Z,14.73
2022-12-04T05:16:11.130Z,15.57
2022-12-04T05:18:38.166Z,16.00
2022-12-04T05:21:16.816Z,15.32
2022-12-04T05:23:43.651Z,14.45
2022-12-04T05:26:10.698Z,13.90
2022-12-04T05:28:37.862Z,14.60
2022-12-04T05:31:04.825Z,15.32
2022-12-04T05:33:31.535Z,13.57
2022-12-04T05:35:59.034Z,14.75
2022-12-04T05:38:26.063Z,15.55
2022-12-04T05:40:52.816Z,16.03
2022-12-04T05:43:19.863Z,15.57
2022-12-04T05:45:46.587Z,14.82
2022-12-04T05:48:13.327Z,15.02
2022-12-04T05:50:40.040Z,14.38
2022-12-04T05:53:06.936Z,14.90
2022-12-04T05:55:33.621Z,16.50
2022-12-04T05:58:00.622Z,15.32
2022-12-04T06:00:27.539Z,14.27
2022-12-04T06:02:54.332Z,15.35
2022-12-04T06:05:21.128Z,16.53
2022-12-04T06:07:47.913Z,15.25
2022-12-04T06:10:14.657Z,15.10
2022-12-04T06:12:41.329Z,16.25
2022-12-04T06:15:08.382Z,15.07
2022-12-04T06:17:35.049Z,15.87
2022-12-04T06:20:05.252Z,16.30
2022-12-04T06:22:34.927Z,15.70
2022-12-04T06:25:01.641Z,13.85
2022-12-04T06:27:28.939Z,15.40
2022-12-04T06:29:56.209Z,14.23
2022-12-04T06:32:23.202Z,15.68
2022-12-04T06:34:53.848Z,15.43
2022-12-04T06:37:25.072Z,12.57
2022-12-04T06:39:52.240Z,15.75
2022-12-04T06:42:19.004Z,14.60
2022-12-04T06:44:45.795Z,15.15
2022-12-04T06:47:12.723Z,16.10
2022-12-04T06:49:39.479Z,13.90
2022-12-04T06:52:06.240Z,15.20
2022-12-04T06:54:32.921Z,12.97
2022-12-04T06:56:59.698Z,15.35
2022-12-04T06:59:26.567Z,15.75
2022-12-04T07:01:53.405Z,16.10
2022-12-04T07:04:20.187Z,15.45
2022-12-04T07:06:47.052Z,15.03
2022-12-04T07:09:16.463Z,15.25
2022-12-04T07:11:44.457Z,15.68
2022-12-04T07:14:12.576Z,13.88
2022-12-04T07:16:42.020Z,15.10
2022-12-04T07:19:14.274Z,14.80
2022-12-04T07:21:42.495Z,14.55
2022-12-04T07:24:14.964Z,16.33
2022-12-04T07:26:41.719Z,13.15
2022-12-04T07:29:10.094Z,14.00
2022-12-04T07:31:36.944Z,15.73
2022-12-04T07:34:03.729Z,16.05
2022-12-04T07:36:30.471Z,16.02
2022-12-04T07:38:57.276Z,11.38
2022-12-04T07:41:26.081Z,15.20
2022-12-04T07:43:54.200Z,14.40
2022-12-04T07:46:26.297Z,14.98
2022-12-04T07:48:55.750Z,15.55
2022-12-04T07:51:25.614Z,14.55
2022-12-04T07:53:53.415Z,14.95
2022-12-04T07:56:20.997Z,15.13
2022-12-04T07:58:47.824Z,14.43
2022-12-04T08:01:20.423Z,13.32
2022-12-04T08:03:50.047Z,15.18
2022-12-04T08:06:19.136Z,15.88
2022-12-04T08:08:46.974Z,14.83
2022-12-04T08:11:17.188Z,15.20
2022-12-04T08:13:44.673Z,15.05
2022-12-04T08:16:12.573Z,14.75
2022-12-04T08:18:40.244Z,15.07
2022-12-04T08:21:16.064Z,14.80
2022-12-04T08:23:43.992Z,15.40
2022-12-04T08:26:11.950Z,14.85
2022-12-04T08:28:40.097Z,15.40
2022-12-04T08:31:11.553Z,14.15
2022-12-04T08:33:38.652Z,13.93
2022-12-04T08:36:10.791Z,14.07
2022-12-04T08:38:38.269Z,14.52
2022-12-04T08:41:06.908Z,14.90
2022-12-04T08:43:34.018Z,15.18
2022-12-04T08:46:05.370Z,14.50
2022-12-04T08:48:33.508Z,14.90
2022-12-04T08:51:00.780Z,14.57
2022-12-04T08:53:27.715Z,13.88
2022-12-04T08:55:54.484Z,15.00
2022-12-04T08:58:21.191Z,12.80
2022-12-04T09:00:48.272Z,13.00
2022-12-04T09:03:17.591Z,14.82
2022-12-04T09:05:47.910Z,14.63
2022-12-04T09:08:16.092Z,14.63
2022-12-04T09:10:43.062Z,14.27
2022-12-04T09:13:09.876Z,14.55
2022-12-04T09:15:40.163Z,13.57
2022-12-04T09:18:07.685Z,14.48
2022-12-04T09:20:34.689Z,14.18
2022-12-04T09:23:04.689Z,14.40
2022-12-04T09:25:35.522Z,12.63
2022-12-04T09:28:02.348Z,14.07
2022-12-04T09:30:31.562Z,14.43
2022-12-04T09:32:58.358Z,13.35
2022-12-04T09:35:25.019Z,13.53
2022-12-04T09:37:51.726Z,14.85
2022-12-04T09:40:47.387Z,15.30
2022-12-04T09:43:47.026Z,14.75
2022-12-04T09:46:28.701Z,13.68
2022-12-04T09:48:59.404Z,13.83
2022-12-04T09:51:27.775Z,13.35
2022-12-04T09:54:10.349Z,11.18
2022-12-04T09:56:37.071Z,14.05
2022-12-04T09:59:17.224Z,14.77
2022-12-04T10:01:48.901Z,12.87
2022-12-04T10:04:17.202Z,13.35
2022-12-04T10:07:07.486Z,15.38
2022-12-04T10:09:56.230Z,14.77
2022-12-04T10:12:37.210Z,14.15
2022-12-04T10:15:37.860Z,14.53
2022-12-04T10:18:27.580Z,14.88
2022-12-04T10:21:15.925Z,14.10
2022-12-04T10:24:20.937Z,14.05
2022-12-04T10:26:48.717Z,11.30
2022-12-04T10:29:27.458Z,13.33
2022-12-04T10:31:56.973Z,13.77
2022-12-04T10:34:29.419Z,13.77
2022-12-04T10:37:02.806Z,12.65
2022-12-04T10:39:45.900Z,12.52
2022-12-04T10:42:32.824Z,11.37
2022-12-04T10:44:59.608Z,11.82
2022-12-04T10:47:26.864Z,10.65
2022-12-04T10:50:00.588Z,12.07
2022-12-04T10:52:27.462Z,11.60
2022-12-04T10:55:00.701Z,10.80
2022-12-04T10:57:41.510Z,11.52
2022-12-04T11:00:32.040Z,11.25
2022-12-04T11:03:25.885Z,10.73
2022-12-04T11:06:10.187Z,10.75
2022-12-04T11:08:39.320Z,10.03
2022-12-04T11:11:14.476Z,11.00
2022-12-04T11:13:41.595Z,11.68
2022-12-04T11:16:25.076Z,11.57
2022-12-04T11:18:51.845Z,10.20
2022-12-04T11:21:27.398Z,10.27
2022-12-04T11:23:54.481Z,9.43
2022-12-04T11:26:33.684Z,11.32
2022-12-04T11:29:01.931Z,11.38
2022-12-04T11:31:29.579Z,9.75
2022-12-04T11:34:01.140Z,10.80
2022-12-04T11:36:37.512Z,11.70
2022-12-04T11:39:18.359Z,10.82
2022-12-04T11:41:45.773Z,10.48
2022-12-04T11:44:27.603Z,10.95
2022-12-04T11:46:57.478Z,10.93
2022-12-04T11:49:26.963Z,10.57
2022-12-04T11:52:08.736Z,10.65
2022-12-04T11:54:59.644Z,10.77
2022-12-04T11:57:55.472Z,11.80
2022-12-04T12:00:23.334Z,10.10
2022-12-04T12:03:06.529Z,9.20
2022-12-04T12:05:53.754Z,11.10
2022-12-04T12:08:46.864Z,10.98
2022-12-04T12:11:28.519Z,9.85
2022-12-04T12:14:01.215Z,9.63
2022-12-04T12:16:49.957Z,8.63
2022-12-04T12:19:47.058Z,9.13
2022-12-04T12:22:21.800Z,9.63
2022-12-04T12:25:13.231Z,10.07
2022-12-04T12:27:58.330Z,9.50
2022-12-04T12:30:28.851Z,9.07
2022-12-04T12:33:10.684Z,9.10
2022-12-04T12:35:47.863Z,9.48
2022-12-04T12:38:24.970Z,9.63
2022-12-04T12:40:58.133Z,9.40
2022-12-04T12:43:30.981Z,8.50
2022-12-04T12:46:15.994Z,9.13
2022-12-04T12:48:58.528Z,9.15
2022-12-04T12:51:37.499Z,9.30
2022-12-04T12:54:48.228Z,8.93
2022-12-04T12:57:33.907Z,9.10
2022-12-04T13:00:19.729Z,8.80
2022-12-04T13:03:05.042Z,8.93
2022-12-04T13:05:37.483Z,7.55
2022-12-04T13:08:21.270Z,8.83
2022-12-04T13:11:21.685Z,9.40
2022-12-04T13:13:55.947Z,9.38
2022-12-04T13:16:25.388Z,10.00
2022-12-04T13:19:12.482Z,9.27
2022-12-04T13:22:00.103Z,8.87
2022-12-04T13:24:47.899Z,8.68
2022-12-04T13:27:42.785Z,7.70
2022-12-04T13:30:15.590Z,8.75
2022-12-04T13:32:48.890Z,8.90
2022-12-04T13:35:34.116Z,8.67
2022-12-04T13:38:03.848Z,7.57
2022-12-04T13:40:38.809Z,9.38
2022-12-04T13:43:16.925Z,8.10
2022-12-04T13:45:47.086Z,8.70
2022-12-04T13:48:13.880Z,8.27
2022-12-04T13:50:41.371Z,8.70
2022-12-04T13:53:32.580Z,8.88
2022-12-04T13:56:04.578Z,8.73
2022-12-04T13:58:36.033Z,8.90
2022-12-04T14:01:26.043Z,8.27
2022-12-04T14:03:57.384Z,8.85
2022-12-04T14:06:34.964Z,7.68
2022-12-04T14:09:06.732Z,8.95
2022-12-04T14:11:46.413Z,8.77
2022-12-04T14:14:37.902Z,9.17
2022-12-04T14:17:05.663Z,8.45
2022-12-04T14:19:36.464Z,8.57
2022-12-04T14:22:03.718Z,9.00
2022-12-04T14:24:39.397Z,8.25
2022-12-04T14:27:31.700Z,9.03
2022-12-04T14:29:59.840Z,8.65
2022-12-04T14:32:30.866Z,7.05
2022-12-04T14:34:58.616Z,9.02
2022-12-04T14:37:31.713Z,7.32
2022-12-04T14:39:59.370Z,8.40
2022-12-04T14:42:37.124Z,8.23
2022-12-04T14:45:17.355Z,8.68
2022-12-04T14:48:06.432Z,7.95
2022-12-04T14:50:45.999Z,8.32
2022-12-04T14:53:17.055Z,8.93
2022-12-04T14:56:05.962Z,9.45
2022-12-04T14:58:37.707Z,8.40
2022-12-04T15:01:29.468Z,9.55
2022-12-04T15:04:01.244Z,8.35
2022-12-04T15:06:30.525Z,9.23
2022-12-04T15:09:20.432Z,9.05
2022-12-04T15:12:14.163Z,9.13
2022-12-04T15:14:46.126Z,9.05
2022-12-04T15:17:15.675Z,8.95
2022-12-04T15:19:42.908Z,9.33
2022-12-04T15:22:28.338Z,9.05
2022-12-04T15:24:56.000Z,9.15
2022-12-04T15:27:31.707Z,8.82
2022-12-04T15:30:00.857Z,9.77
2022-12-04T15:32:31.006Z,9.43
2022-12-04T15:35:09.245Z,9.20
2022-12-04T15:37:36.973Z,11.63
2022-12-04T15:40:08.696Z,9.82
2022-12-04T15:42:47.748Z,9.77
2022-12-04T15:45:14.418Z,10.80
2022-12-04T15:47:41.180Z,10.57
2022-12-04T15:50:15.399Z,9.48
2022-12-04T15:53:14.371Z,10.55
2022-12-04T15:55:54.164Z,9.75
2022-12-04T15:58:28.803Z,9.37
2022-12-04T16:01:16.256Z,11.00
2022-12-04T16:03:44.522Z,9.95
2022-12-04T16:06:22.517Z,11.13
2022-12-04T16:08:55.668Z,10.95
2022-12-04T16:11:32.095Z,11.23
2022-12-04T16:14:07.966Z,11.32
2022-12-04T16:16:36.947Z,11.07
2022-12-04T16:19:09.332Z,11.20
2022-12-04T16:21:36.693Z,13.18
2022-12-04T16:24:05.853Z,12.17
2022-12-04T16:26:33.448Z,13.57
2022-12-04T16:29:00.304Z,14.00
2022-12-04T16:31:27.421Z,13.13
2022-12-04T16:33:54.149Z,13.07
2022-12-04T16:36:20.889Z,12.60
2022-12-04T16:38:47.598Z,11.60
2022-12-04T16:41:16.357Z,13.40
2022-12-04T16:43:43.199Z,13.55
2022-12-04T16:46:13.934Z,13.13
2022-12-04T16:48:42.340Z,13.07
2022-12-04T16:51:26.740Z,13.13
2022-12-04T16:53:54.351Z,13.07
2022-12-04T16:56:21.146Z,12.75
2022-12-04T16:58:48.139Z,11.80
2022-12-04T17:01:28.524Z,13.57
2022-12-04T17:03:55.322Z,13.80
2022-12-04T17:06:22.122Z,12.60
2022-12-04T17:08:48.919Z,14.00
2022-12-04T17:11:17.247Z,13.43
2022-12-04T17:13:44.464Z,14.03
2022-12-04T17:16:14.588Z,12.75
2022-12-04T17:18:42.465Z,14.60
2022-12-04T17:21:11.915Z,14.45
2022-12-04T17:23:39.756Z,14.60
2022-12-04T17:26:12.352Z,13.23
2022-12-04T17:28:39.588Z,10.85
2022-12-04T17:31:14.028Z,13.20
2022-12-04T17:33:40.947Z,14.25
2022-12-04T17:36:10.201Z,14.10
2022-12-04T17:38:37.888Z,14.00
2022-12-04T17:41:05.301Z,13.82
2022-12-04T17:43:32.508Z,15.65
2022-12-04T17:45:59.796Z,15.43
2022-12-04T17:48:27.589Z,14.88
2022-12-04T17:51:20.223Z,17.17
2022-12-04T17:53:47.758Z,17.58
2022-12-04T17:56:17.435Z,16.00
2022-12-04T17:58:45.263Z,15.15
2022-12-04T18:01:18.108Z,14.43
2022-12-04T18:03:50.575Z,13.83
2022-12-04T18:06:23.016Z,14.75
2022-12-04T18:08:50.697Z,14.63
2022-12-04T18:11:23.987Z,14.60
2022-12-04T18:13:56.238Z,15.00
2022-12-04T18:16:23.133Z,15.30
2022-12-04T18:18:50.836Z,14.13
2022-12-04T18:21:20.326Z,12.05
2022-12-04T18:23:47.340Z,14.18
2022-12-04T18:26:17.086Z,12.82
2022-12-04T18:28:44.910Z,12.97
2022-12-04T18:31:12.980Z,13.20
2022-12-04T18:33:41.035Z,12.85
2022-12-04T18:36:12.048Z,14.40
2022-12-04T18:38:38.946Z,12.23
2022-12-04T18:41:08.442Z,12.77
2022-12-04T18:43:36.622Z,13.43
2022-12-04T18:46:07.846Z,11.52
2022-12-04T18:48:35.987Z,13.00
2022-12-04T18:51:13.048Z,13.23
2022-12-04T18:53:39.789Z,13.13
2022-12-04T18:56:07.364Z,13.60
2022-12-04T18:58:34.178Z,13.40
2022-12-04T19:01:13.717Z,12.95
2022-12-04T19:03:41.544Z,13.23
2022-12-04T19:06:08.654Z,13.30
2022-12-04T19:08:38.757Z,13.88
2022-12-04T19:11:13.735Z,13.90
2022-12-04T19:13:41.151Z,13.10
2022-12-04T19:16:13.095Z,12.35
2022-12-04T19:18:40.024Z,13.10
2022-12-04T19:21:07.376Z,12.57
2022-12-04T19:23:34.548Z,13.50
2022-12-04T19:26:01.708Z,13.18
2022-12-04T19:28:29.213Z,13.20
2022-12-04T19:30:56.810Z,13.47
2022-12-04T19:33:24.843Z,14.75
2022-12-04T19:36:05.640Z,13.65
2022-12-04T19:38:33.735Z,13.35
2022-12-04T19:41:15.247Z,11.70
2022-12-04T19:43:50.672Z,12.20
2022-12-04T19:46:20.093Z,11.63
2022-12-04T19:48:48.896Z,11.95
2022-12-04T19:51:18.816Z,12.15
2022-12-04T19:53:46.648Z,10.88
2022-12-04T19:56:17.968Z,12.00
2022-12-04T19:58:45.112Z,12.18
2022-12-04T20:01:17.782Z,12.70
2022-12-04T20:03:44.920Z,10.68
2022-12-04T20:06:15.892Z,12.55
2022-12-04T20:08:42.905Z,13.00
2022-12-04T20:11:17.014Z,12.63
2022-12-04T20:13:46.149Z,13.35
2022-12-04T20:16:16.339Z,12.10
2022-12-04T20:18:43.779Z,12.18
2022-12-04T20:21:12.101Z,13.10
2022-12-04T20:23:40.327Z,13.40
2022-12-04T20:26:11.298Z,13.02
2022-12-04T20:28:38.337Z,10.80
2022-12-04T20:31:20.500Z,13.27
2022-12-04T20:33:49.064Z,13.50
2022-12-04T20:36:18.844Z,15.00
2022-12-04T20:38:45.948Z,13.82
2022-12-04T20:41:15.909Z,12.30
2022-12-04T20:43:43.722Z,15.15
2022-12-04T20:46:20.376Z,15.47
2022-12-04T20:48:48.434Z,15.88
2022-12-04T20:51:20.328Z,14.40
2022-12-04T20:53:48.238Z,15.13
2022-12-04T20:56:15.168Z,14.75
2022-12-04T20:58:41.967Z,15.00
2022-12-04T21:01:10.696Z,15.20
2022-12-04T21:03:37.507Z,14.57
2022-12-04T21:06:04.700Z,14.88
2022-12-04T21:08:50.256Z,14.70
2022-12-04T21:11:16.920Z,12.23
2022-12-04T21:14:02.187Z,14.60
2022-12-04T21:16:28.965Z,14.07
2022-12-04T21:18:55.680Z,15.32
2022-12-04T21:21:22.469Z,12.38
2022-12-04T21:23:49.189Z,13.93
2022-12-04T21:26:16.079Z,14.82
2022-12-04T21:28:42.796Z,13.75
2022-12-04T21:31:09.748Z,13.77
2022-12-04T21:33:36.768Z,14.40
2022-12-04T21:36:06.113Z,14.10
2022-12-04T21:38:34.844Z,14.15
2022-12-04T21:41:02.268Z,13.43
2022-12-04T21:43:30.515Z,10.68
2022-12-04T21:45:58.278Z,13.05
2022-12-04T21:48:25.872Z,13.23
2022-12-04T21:50:53.100Z,11.80
2022-12-04T21:53:20.332Z,12.40
2022-12-04T21:55:52.234Z,13.02
2022-12-04T21:58:21.081Z,14.50
2022-12-04T22:00:48.453Z,15.77
2022-12-04T22:03:15.928Z,14.70
2022-12-04T22:05:43.715Z,15.18
2022-12-04T22:08:12.608Z,14.68
2022-12-04T22:10:44.870Z,13.80
2022-12-04T22:13:12.359Z,15.63
2022-12-04T22:15:41.351Z,15.63
2022-12-04T22:18:09.367Z,15.95
2022-12-04T22:20:40.500Z,13.40
2022-12-04T22:23:08.255Z,11.85
2022-12-04T22:25:35.783Z,15.73
2022-12-04T22:28:02.496Z,12.50
2022-12-04T22:30:29.496Z,14.75
2022-12-04T22:32:56.346Z,14.63
2022-12-04T22:35:23.227Z,12.75
2022-12-04T22:37:49.904Z,16.13
2022-12-04T22:40:16.817Z,13.43
2022-12-04T22:42:44.280Z,12.88
2022-12-04T22:45:12.114Z,14.02
2022-12-04T22:47:38.876Z,12.50
2022-12-04T22:50:06.453Z,11.63
2022-12-04T22:52:33.216Z,11.65
2022-12-04T22:54:59.887Z,12.40
2022-12-04T22:57:27.796Z,11.80
2022-12-04T22:59:54.628Z,13.77
2022-12-04T23:02:21.540Z,13.23
2022-12-04T23:04:48.442Z,13.60
2022-12-04T23:07:15.115Z,11.80
2022-12-04T23:09:41.905Z,13.25
2022-12-04T23:12:08.584Z,12.85
2022-12-04T23:14:36.912Z,15.37
2022-12-04T23:17:04.133Z,13.18
2022-12-04T23:19:31.349Z,12.25
2022-12-04T23:21:58.157Z,12.15
2022-12-04T23:24:25.373Z,11.35
2022-12-04T23:26:52.476Z,12.27
2022-12-04T23:29:44.882Z,14.35
2022-12-04T23:32:05.949Z,12.27
2022-12-04T23:34:32.740Z,13.57
2022-12-04T23:36:59.645Z,11.10
2022-12-04T23:39:26.335Z,13.40
2022-12-04T23:41:53.160Z,12.90
2022-12-04T23:44:19.863Z,13.20
2022-12-04T23:46:46.671Z,10.07
2022-12-04T23:49:13.386Z,10.82
2022-12-04T23:51:40.273Z,12.67
2022-12-04T23:54:06.984Z,10.18
2022-12-04T23:56:33.719Z,11.55
2022-12-04T23:59:00.469Z,13.63
